Flight Track Log - Related Links

Times and Time Zones

All times are in EDT time to prevent confusion due to time zone crossing. See the EJA922 flight status page for this flight to view local times or setup timezone preferences in your user account.

Time Position Orientation Groundspeed Altitude Reporting Facility
EDT Latitude Longitude Course Direction KTS MPH feet Rate Location/Type
Mon 12:47:05 PM 40.7692 -111.9617 221° Southwest 176 203 5,000  Level Salt Lake Center
Mon 12:47:42 PM 40.7425 -111.9928 221° Southwest 209 241 6,600 2,177 Climbing Salt Lake Center
Mon 12:49:09 PM 40.7886 -112.0792 305° West 269 310 9,500 1,933 Climbing Salt Lake Center
Mon 12:50:11 PM 40.8700 -112.0819 359° North 308 354 11,400 1,645 Climbing Salt Lake Center
Mon 12:51:13 PM 40.9669 -112.0636 North 355 409 12,900 1,452 Climbing Salt Lake Center
Mon 12:52:15 PM 41.0761 -112.0439 North 387 445 14,400 1,500 Climbing Salt Lake Center
Mon 12:53:17 PM 41.1914 -112.0236 North 412 474 16,000 1,645 Climbing Salt Lake Center
Mon 12:54:19 PM 41.3336 -111.9983 North 425 489 17,800 1,839 Climbing Salt Lake Center
Mon 12:55:21 PM 41.4522 -111.9778 North 428 493 19,800 1,935 Climbing Salt Lake Center
Mon 12:56:23 PM 41.5689 -111.9561 North 423 487 21,800 1,694 Climbing Salt Lake Center
Mon 12:57:25 PM 41.6883 -111.9353 North 433 498 23,300 1,440 Climbing Salt Lake Center
Mon 12:58:28 PM 41.8100 -111.9139 North 442 509 24,800 1,440 Climbing Salt Lake Center
Mon 12:59:30 PM 41.9331 -111.8919 North 445 512 26,300 1,597 Climbing Salt Lake Center
Mon 01:00:32 PM 42.0839 -111.8644 North 454 522 28,100 1,548 Climbing Salt Lake Center
Mon 01:01:34 PM 42.2106 -111.8425 North 457 526 29,500 919 Climbing Salt Lake Center
Mon 01:02:36 PM 42.3419 -111.8172 North 474 545 30,000 242 Climbing Salt Lake Center
Mon 01:03:38 PM 42.4797 -111.7928 North 496 571 30,000  Level Salt Lake Center
Mon 01:04:40 PM 42.6172 -111.7658 North 500 575 30,000  Level Salt Lake Center
Mon 01:05:42 PM 42.7592 -111.7406 North 501 577 30,000  Level Salt Lake Center
Mon 01:06:44 PM 42.9128 -111.7114 North 498 573 30,000  Level Salt Lake Center
Mon 01:07:46 PM 43.0417 -111.6886 North 489 563 30,000  Level Salt Lake Center
Mon 01:08:48 PM 43.1914 -111.6603 North 485 558 30,000  Level Salt Lake Center
Mon 01:09:50 PM 43.3200 -111.6361 North 486 559 30,000  Level Salt Lake Center
Mon 01:10:52 PM 43.4686 -111.6083 North 484 557 30,000  Level Salt Lake Center
Mon 01:11:54 PM 43.5958 -111.5844 North 482 555 30,000  Level Salt Lake Center
Mon 01:12:56 PM 43.7453 -111.5567 North 483 556 30,000  Level Salt Lake Center
Mon 01:13:58 PM 43.8728 -111.5322 North 484 557 30,000  Level Salt Lake Center
Mon 01:15:00 PM 44.0225 -111.5028 North 487 560 30,000  Level Salt Lake Center
Mon 01:16:03 PM 44.1519 -111.4778 North 489 563 30,000  Level Salt Lake Center
Mon 01:17:05 PM 44.3014 -111.4475 North 487 560 30,000 -339 Level Salt Lake Center
Mon 01:18:07 PM 44.4294 -111.4219 North 487 560 29,300 -1,597 Descending Salt Lake Center
Mon 01:19:09 PM 44.5842 -111.3914 North 534 615 26,700 -2,274 Descending Salt Lake Center
Mon 01:20:11 PM 44.7147 -111.3664 North 513 590 24,600 -2,226 Descending Salt Lake Center
Mon 01:21:13 PM 44.8614 -111.3372 North 481 554 22,100 -2,177 Descending Salt Lake Center
Mon 01:22:15 PM 44.9833 -111.3128 North 469 540 20,100 -2,032 Descending Salt Lake Center
Mon 01:23:17 PM 45.1192 -111.2853 North 448 516 17,900 -2,129 Descending Salt Lake Center
Mon 01:24:19 PM 45.2497 -111.2586 North 439 505 15,700 -1,887 Descending Salt Lake Center
Mon 01:25:21 PM 45.3706 -111.2344 North 440 506 14,000 -823 Descending Salt Lake Center
Mon 01:26:23 PM 45.4753 -111.2131 North 381 438 14,000 -629 Level Salt Lake Center
Mon 01:27:25 PM 45.5706 -111.1939 North 349 402 12,700 -1,452 Descending Salt Lake Center
Mon 01:28:27 PM 45.6619 -111.1753 North 339 390 11,000 -1,161 Descending Salt Lake Center
Mon 01:29:29 PM 45.7392 -111.1597 North 303 349 10,300 -1,161 Descending Salt Lake Center
Mon 01:30:31 PM 45.8175 -111.1467 North 276 318 8,600 -1,597 Descending Salt Lake Center
Mon 01:31:33 PM 45.8583 -111.2036 316° Northwest 241 277 7,000 -1,645 Descending Salt Lake Center
Mon 01:32:35 PM 45.8194 -111.2106 187° South 201 231 5,200 -1,210 Descending Salt Lake Center
Mon 01:33:37 PM 45.7858 -111.1647 136° Southeast 157 181 4,500 -677 Descending Salt Lake Center

Login

Don't have an account? Register now (free) for customized features, flight alerts, and more!